Time;durP1;ratioP1;P1;durP2;ratioP2;P2;SDS_P1;SDS_P2;PMS_P1;PMS_P2;Temp;Humidity;BMP_temperature;BMP_pressure;BME280_temperature;BME280_humidity;BME280_pressure;Samples;Min_cycle;Max_cycle;Signal;HPM_P1;HPM_P2
2022/12/21 05:55:22;;;;;;;8.63;5.25;;;3.40;99.90;;;;;;7625760;19;20366;-68
2022/12/21 05:57:54;;;;;;;6.93;4.18;;;3.50;99.90;;;;;;7619285;19;20018;-68
2022/12/21 06:00:27;;;;;;;6.28;3.92;;;3.50;99.90;;;;;;7618345;19;20056;-67
2022/12/21 06:03:00;;;;;;;8.25;4.32;;;3.60;99.90;;;;;;7604130;19;20068;-67
2022/12/21 06:05:34;;;;;;;7.95;4.80;;;3.60;99.90;;;;;;7613691;19;20037;-67
2022/12/21 06:08:06;;;;;;;10.05;4.93;;;3.70;99.90;;;;;;7626364;19;20510;-67
2022/12/21 06:10:38;;;;;;;9.80;4.18;;;3.80;99.90;;;;;;7609117;19;20038;-68
2022/12/21 06:13:10;;;;;;;8.52;3.95;;;3.80;99.90;;;;;;7619744;19;20036;-67
2022/12/21 06:15:42;;;;;;;7.53;4.50;;;3.90;99.90;;;;;;7594533;19;20018;-67
2022/12/21 06:18:15;;;;;;;5.90;3.75;;;3.90;99.90;;;;;;7603605;19;20620;-67
2022/12/21 06:20:52;;;;;;;6.87;4.43;;;3.90;99.90;;;;;;7611389;19;20333;-68
2022/12/21 06:23:24;;;;;;;6.90;4.45;;;4.00;99.90;;;;;;7615542;19;20007;-67
2022/12/21 06:25:57;;;;;;;8.52;4.95;;;4.00;99.90;;;;;;7633267;19;20032;-68
2022/12/21 06:28:31;;;;;;;9.00;4.50;;;4.10;99.90;;;;;;7608270;19;20022;-67
2022/12/21 06:31:09;;;;;;;8.52;4.82;;;4.10;99.90;;;;;;7628735;19;20337;-68
2022/12/21 06:33:41;;;;;;;9.82;5.18;;;4.10;99.90;;;;;;7615616;19;20016;-68
2022/12/21 06:36:14;;;;;;;9.27;5.20;;;4.20;99.90;;;;;;7632595;19;20103;-67
2022/12/21 06:38:46;;;;;;;14.77;5.83;;;4.20;99.90;;;;;;7606937;19;20572;-67
2022/12/21 06:41:19;;;;;;;13.25;6.80;;;4.20;99.90;;;;;;7602574;19;20301;-67
2022/12/21 06:43:51;;;;;;;10.60;6.75;;;4.20;99.90;;;;;;7630589;19;20510;-68
2022/12/21 06:46:23;;;;;;;14.10;7.65;;;4.20;99.90;;;;;;7636322;19;20111;-68
2022/12/21 06:48:55;;;;;;;16.63;8.75;;;4.20;99.90;;;;;;7635069;19;20014;-68
2022/12/21 06:51:27;;;;;;;13.77;8.73;;;4.30;99.90;;;;;;7640768;19;20414;-67
2022/12/21 06:54:00;;;;;;;15.55;9.32;;;4.30;99.90;;;;;;7643056;19;20792;-68
2022/12/21 06:56:32;;;;;;;15.10;6.85;;;4.40;99.90;;;;;;7642632;19;20018;-68
2022/12/21 06:59:04;;;;;;;12.70;5.90;;;4.40;99.90;;;;;;7645568;19;20437;-68
2022/12/21 07:01:36;;;;;;;16.55;6.15;;;4.50;99.90;;;;;;7641679;19;20407;-67
2022/12/21 07:04:08;;;;;;;8.95;6.13;;;4.50;99.90;;;;;;7645260;19;20010;-67
2022/12/21 07:06:41;;;;;;;11.50;6.75;;;4.50;99.90;;;;;;7612187;19;20517;-68
2022/12/21 07:09:13;;;;;;;18.60;7.65;;;4.60;99.90;;;;;;7606120;19;20015;-67
2022/12/21 07:11:46;;;;;;;11.95;6.43;;;4.50;99.90;;;;;;7615294;19;20018;-68
2022/12/21 07:14:19;;;;;;;12.35;5.80;;;4.60;99.90;;;;;;7600061;19;20036;-68
2022/12/21 07:16:51;;;;;;;11.55;5.22;;;4.70;99.90;;;;;;7608125;19;20026;-68
2022/12/21 07:19:23;;;;;;;10.45;4.80;;;4.70;99.90;;;;;;7606279;19;20031;-68
2022/12/21 07:21:55;;;;;;;8.40;4.80;;;4.70;99.90;;;;;;7608297;19;20352;-68
2022/12/21 07:24:27;;;;;;;6.57;4.45;;;4.60;99.90;;;;;;7606728;19;20019;-68
2022/12/21 07:27:00;;;;;;;11.70;5.10;;;4.70;99.90;;;;;;7608239;19;20094;-68
2022/12/21 07:29:32;;;;;;;9.10;5.15;;;4.70;99.90;;;;;;7591514;19;20030;-68
2022/12/21 07:32:05;;;;;;;11.90;5.17;;;4.70;99.90;;;;;;7611141;19;20026;-68
2022/12/21 07:34:37;;;;;;;12.23;5.43;;;4.80;99.90;;;;;;7606661;19;20018;-68
2022/12/21 07:37:09;;;;;;;14.07;6.35;;;4.70;99.90;;;;;;7614240;19;20384;-69
2022/12/21 07:39:41;;;;;;;14.52;6.00;;;4.70;99.90;;;;;;7608865;19;20029;-68
2022/12/21 07:42:13;;;;;;;17.63;6.03;;;4.80;99.90;;;;;;7605990;19;20015;-68
2022/12/21 07:44:59;;;;;;;12.60;5.55;;;4.70;99.90;;;;;;7600242;19;20023;-68
2022/12/21 07:47:41;;;;;;;8.90;5.40;;;4.80;99.90;;;;;;7599796;19;20015;-68
2022/12/21 07:50:13;;;;;;;10.95;5.65;;;4.80;99.90;;;;;;7606035;19;20019;-68
2022/12/21 15:12:00;;;;;;;17.40;10.20;;;6.20;99.90;;;;;;7633206;19;20379;-75
2022/12/21 15:14:34;;;;;;;19.27;10.82;;;6.20;99.90;;;;;;7631488;19;20010;-75
2022/12/21 15:17:14;;;;;;;20.42;11.85;;;6.20;99.90;;;;;;7636346;19;20033;-74
2022/12/21 15:19:52;;;;;;;17.48;10.68;;;6.20;99.90;;;;;;7639075;19;20030;-75
2022/12/21 15:22:50;;;;;;;19.90;11.60;;;6.20;99.90;;;;;;7646415;19;20937;-75
2022/12/21 15:25:26;;;;;;;16.45;11.02;;;6.30;99.90;;;;;;7641907;19;20018;-76
2022/12/21 15:28:08;;;;;;;19.17;11.95;;;6.30;99.90;;;;;;7624491;19;20082;-75
2022/12/21 15:30:45;;;;;;;20.33;12.68;;;6.20;99.90;;;;;;7629955;19;20049;-75
2022/12/21 15:33:19;;;;;;;17.92;10.10;;;6.30;99.90;;;;;;7621669;19;20019;-75
2022/12/21 15:35:55;;;;;;;14.23;8.95;;;6.40;99.90;;;;;;7603201;19;20022;-74
2022/12/21 15:38:43;;;;;;;15.77;9.55;;;6.50;99.90;;;;;;7635332;19;20022;-75
2022/12/21 15:41:23;;;;;;;15.63;9.15;;;6.60;99.90;;;;;;7613992;19;20021;-76
2022/12/21 15:44:05;;;;;;;13.85;8.23;;;6.50;99.90;;;;;;7626911;19;20018;-73
2022/12/21 15:47:03;;;;;;;14.13;7.65;;;6.60;99.90;;;;;;7621963;19;20646;-73
2022/12/21 15:49:53;;;;;;;12.85;7.20;;;6.70;99.90;;;;;;7627562;19;20759;-76
2022/12/21 15:52:32;;;;;;;13.13;7.40;;;6.90;99.90;;;;;;7639232;19;20053;-74
2022/12/21 15:55:11;;;;;;;18.92;7.57;;;7.00;99.90;;;;;;7640778;19;20432;-75
2022/12/21 15:57:50;;;;;;;11.98;7.47;;;6.90;99.90;;;;;;7648408;19;20529;-75
2022/12/21 16:00:25;;;;;;;14.15;7.25;;;6.80;99.90;;;;;;7637978;19;20727;-75
2022/12/21 16:03:03;;;;;;;12.57;7.65;;;6.70;99.90;;;;;;7642243;19;20488;-74
2022/12/21 16:05:36;;;;;;;11.40;7.70;;;6.60;99.90;;;;;;7648304;19;20369;-75
2022/12/21 16:08:19;;;;;;;9.60;7.07;;;6.60;99.90;;;;;;7639703;19;20029;-75
2022/12/21 16:10:53;;;;;;;14.57;8.38;;;6.50;99.90;;;;;;7616216;19;20025;-76
2022/12/21 16:13:35;;;;;;;13.68;8.48;;;6.40;99.90;;;;;;7649294;19;20033;-76
2022/12/21 16:16:16;;;;;;;22.52;10.13;;;6.20;99.90;;;;;;7648139;19;20979;-74
2022/12/21 16:18:48;;;;;;;19.73;11.93;;;6.20;99.90;;;;;;7644313;19;20010;-76
2022/12/21 16:21:32;;;;;;;18.45;10.77;;;6.30;99.90;;;;;;7636739;19;20019;-75
2022/12/21 16:24:05;;;;;;;15.65;8.65;;;6.30;99.90;;;;;;7617487;19;20649;-76
2022/12/21 16:26:37;;;;;;;16.75;10.02;;;6.30;99.90;;;;;;7618557;19;20014;-75
2022/12/21 16:29:25;;;;;;;17.38;10.38;;;6.20;99.90;;;;;;6076616;19;10000108;-76
2022/12/21 16:31:58;;;;;;;16.92;10.25;;;6.10;99.90;;;;;;7615315;19;20086;-76
2022/12/21 16:34:38;;;;;;;20.92;14.73;;;6.10;99.90;;;;;;7615170;19;20010;-75
2022/12/21 16:37:25;;;;;;;43.05;23.25;;;6.00;99.90;;;;;;7601917;19;20022;-75
2022/12/21 16:40:15;;;;;;;76.95;37.03;;;6.20;99.90;;;;;;7614364;19;20030;-76
2022/12/21 16:42:51;;;;;;;50.70;26.27;;;6.30;99.90;;;;;;7615701;19;20014;-75
2022/12/21 16:45:26;;;;;;;40.95;22.63;;;6.30;99.90;;;;;;7615678;19;20390;-74
2022/12/21 16:48:21;;;;;;;26.45;15.32;;;6.30;99.90;;;;;;7597121;19;20357;-75
2022/12/21 16:50:59;;;;;;;26.50;15.90;;;6.20;99.90;;;;;;7610555;19;20085;-76
2022/12/21 16:53:34;;;;;;;22.80;14.02;;;6.20;99.90;;;;;;7611664;19;20020;-75
2022/12/21 16:56:15;;;;;;;22.40;14.30;;;6.10;99.90;;;;;;7593245;19;20561;-75
2022/12/21 16:58:54;;;;;;;22.55;13.25;;;6.00;99.90;;;;;;7587033;19;20029;-74
2022/12/21 17:01:39;;;;;;;18.77;11.68;;;6.00;99.90;;;;;;7583637;19;20116;-75
2022/12/21 17:04:18;;;;;;;17.30;11.75;;;5.90;99.90;;;;;;7606526;19;20060;-75
2022/12/21 17:06:59;;;;;;;17.92;10.95;;;5.90;99.90;;;;;;7610007;19;20480;-74
2022/12/21 17:09:53;;;;;;;22.77;13.40;;;5.80;99.90;;;;;;7601814;19;20020;-74
2022/12/21 17:12:31;;;;;;;18.25;12.60;;;5.90;99.90;;;;;;7605826;19;20014;-75
2022/12/21 17:15:25;;;;;;;15.85;10.77;;;6.00;99.90;;;;;;7605407;19;20022;-75
2022/12/21 17:17:59;;;;;;;22.67;13.90;;;6.10;99.90;;;;;;7607659;19;20035;-74
2022/12/21 17:20:32;;;;;;;20.23;13.63;;;6.20;99.90;;;;;;7607254;19;20018;-77
2022/12/21 17:23:09;;;;;;;20.27;13.98;;;6.10;99.90;;;;;;7605799;19;20025;-76
2022/12/21 17:25:44;;;;;;;22.52;14.80;;;6.10;99.90;;;;;;7601617;19;20018;-76
2022/12/21 17:28:36;;;;;;;23.88;15.40;;;6.00;99.90;;;;;;7607707;19;20015;-76
2022/12/21 17:31:17;;;;;;;21.50;13.70;;;5.90;99.90;;;;;;7598119;19;20570;-76
2022/12/21 17:33:49;;;;;;;23.40;14.70;;;5.80;99.90;;;;;;7606491;19;20018;-75
2022/12/21 17:36:22;;;;;;;20.55;13.50;;;5.80;99.90;;;;;;7587874;19;20011;-75
2022/12/21 17:39:11;;;;;;;23.48;14.77;;;5.80;99.90;;;;;;7599649;19;20018;-74
2022/12/21 17:41:44;;;;;;;23.27;15.27;;;5.70;99.90;;;;;;7605029;19;20014;-75
2022/12/21 17:44:16;;;;;;;25.33;15.63;;;5.70;99.90;;;;;;7594970;19;20483;-75
2022/12/21 17:47:30;;;;;;;20.80;14.77;;;5.70;99.90;;;;;;7596841;19;20094;-74
2022/12/21 17:50:02;;;;;;;21.83;14.50;;;5.70;99.90;;;;;;7590230;19;20041;-75
2022/12/21 17:52:34;;;;;;;23.55;13.85;;;5.70;99.90;;;;;;7594272;19;20035;-75
2022/12/21 17:55:19;;;;;;;21.60;13.83;;;5.70;99.90;;;;;;7583560;19;20026;-75
2022/12/21 17:58:00;;;;;;;17.80;12.90;;;5.70;99.90;;;;;;7594104;19;20031;-75
2022/12/21 18:00:32;;;;;;;24.23;14.98;;;5.70;99.90;;;;;;7597136;19;20110;-75
2022/12/21 18:03:12;;;;;;;24.77;16.08;;;5.70;99.90;;;;;;7596906;19;20018;-76
2022/12/21 18:05:44;;;;;;;29.23;18.23;;;5.60;99.90;;;;;;7583134;19;20019;-76
2022/12/21 18:08:17;;;;;;;29.02;18.35;;;5.60;99.90;;;;;;7611467;19;21046;-76
2022/12/21 18:10:49;;;;;;;29.33;18.23;;;5.70;99.90;;;;;;7597389;19;20086;-76
2022/12/21 18:13:23;;;;;;;30.92;18.23;;;5.60;99.90;;;;;;7616356;19;21462;-75
2022/12/21 18:15:59;;;;;;;31.52;20.30;;;5.50;99.90;;;;;;7606412;19;20018;-76
2022/12/21 18:18:33;;;;;;;27.15;17.70;;;5.50;99.90;;;;;;7608158;19;20021;-75
2022/12/21 18:21:06;;;;;;;30.48;19.05;;;5.60;99.90;;;;;;7612071;19;20117;-76
2022/12/21 18:23:40;;;;;;;27.65;18.20;;;5.50;99.90;;;;;;7609543;19;20021;-75
2022/12/21 18:26:13;;;;;;;37.63;22.00;;;5.60;99.90;;;;;;7609578;19;20418;-76
2022/12/21 18:28:47;;;;;;;34.10;22.77;;;5.50;99.90;;;;;;7614820;19;20081;-76
2022/12/21 18:31:25;;;;;;;23.80;18.47;;;5.50;99.90;;;;;;7608102;19;20014;-77
2022/12/21 18:33:59;;;;;;;30.33;19.75;;;5.50;99.90;;;;;;7610005;19;20276;-76
2022/12/21 18:36:33;;;;;;;31.08;20.55;;;5.50;99.90;;;;;;7611359;19;20015;-76
2022/12/21 18:39:08;;;;;;;35.67;21.50;;;5.70;99.90;;;;;;7608233;19;20106;-75
2022/12/21 18:41:40;;;;;;;48.67;26.70;;;5.80;99.90;;;;;;7608255;19;20674;-77
2022/12/21 18:44:12;;;;;;;41.28;23.02;;;5.90;99.90;;;;;;7606032;19;20013;-76
2022/12/21 18:46:48;;;;;;;39.40;21.60;;;5.90;99.90;;;;;;7609312;19;20018;-76
2022/12/21 18:49:21;;;;;;;33.03;20.00;;;6.00;99.90;;;;;;7607562;19;20025;-76
2022/12/21 18:51:53;;;;;;;31.33;20.13;;;6.00;99.90;;;;;;7610217;19;21253;-76
2022/12/21 18:54:25;;;;;;;37.45;21.88;;;6.00;99.90;;;;;;7604224;19;20018;-76
2022/12/21 18:56:58;;;;;;;35.80;22.03;;;6.00;99.90;;;;;;7614357;19;20091;-76
2022/12/21 18:59:30;;;;;;;32.65;19.52;;;5.90;99.90;;;;;;7610813;19;20022;-76
2022/12/21 19:02:21;;;;;;;37.25;23.60;;;6.00;99.90;;;;;;7614015;19;20022;-76
2022/12/21 19:04:55;;;;;;;34.20;20.20;;;6.00;99.90;;;;;;7614506;19;20116;-76
2022/12/21 19:07:27;;;;;;;34.17;18.00;;;6.00;99.90;;;;;;7607171;19;20011;-76
2022/12/21 19:09:59;;;;;;;28.40;18.17;;;6.10;99.90;;;;;;7614687;19;20035;-76
2022/12/21 19:12:32;;;;;;;30.20;19.55;;;6.10;99.90;;;;;;7600341;19;20054;-76
2022/12/21 19:15:14;;;;;;;33.67;21.23;;;6.00;99.90;;;;;;7613668;19;20019;-76
2022/12/21 19:17:46;;;;;;;33.72;18.95;;;5.80;99.90;;;;;;7614988;19;20010;-76
2022/12/21 19:20:29;;;;;;;35.50;21.10;;;5.80;99.90;;;;;;7607596;19;20098;-75
2022/12/21 19:23:03;;;;;;;29.88;19.83;;;5.80;99.90;;;;;;7614733;19;20050;-76
2022/12/21 19:25:35;;;;;;;34.65;22.60;;;5.90;99.90;;;;;;7609006;19;20015;-77
2022/12/21 19:28:16;;;;;;;36.40;22.83;;;5.90;99.90;;;;;;7615669;19;20032;-75
2022/12/21 19:30:49;;;;;;;33.53;21.88;;;6.00;99.90;;;;;;7601058;19;20018;-77
2022/12/21 19:33:21;;;;;;;25.58;18.08;;;6.00;99.90;;;;;;7609140;19;20014;-77
2022/12/21 19:35:56;;;;;;;27.20;19.00;;;6.10;99.90;;;;;;7616323;19;21037;-77
2022/12/21 19:38:29;;;;;;;27.17;18.30;;;6.00;99.90;;;;;;7607956;19;20011;-75
2022/12/21 19:41:02;;;;;;;29.17;19.98;;;6.00;99.90;;;;;;7613269;19;20070;-76
2022/12/21 19:43:35;;;;;;;31.40;19.00;;;5.90;99.90;;;;;;7608029;19;20018;-75
2022/12/21 19:46:24;;;;;;;32.20;19.60;;;6.00;99.90;;;;;;7611688;19;20010;-75
2022/12/21 19:48:58;;;;;;;24.10;15.88;;;6.00;99.90;;;;;;7609239;19;20026;-76
2022/12/21 19:51:30;;;;;;;21.58;14.80;;;6.00;99.90;;;;;;7610845;19;20050;-75
2022/12/21 19:54:02;;;;;;;23.00;15.20;;;6.00;99.90;;;;;;7611147;19;20027;-75
2022/12/21 19:56:34;;;;;;;22.70;14.05;;;6.10;99.90;;;;;;7603742;19;20022;-75
2022/12/21 19:59:17;;;;;;;23.75;14.80;;;6.10;99.90;;;;;;7614073;19;20029;-75
2022/12/21 20:02:00;;;;;;;23.28;14.62;;;6.10;99.90;;;;;;6893483;19;10000892;-75
2022/12/21 20:04:33;;;;;;;27.25;16.05;;;6.10;99.90;;;;;;7613193;19;20239;-77
2022/12/21 20:07:10;;;;;;;24.33;15.48;;;6.10;99.90;;;;;;7617995;19;20014;-76
2022/12/21 20:09:42;;;;;;;26.08;14.77;;;6.10;99.90;;;;;;7624120;19;20160;-75
2022/12/21 20:12:15;;;;;;;22.88;14.13;;;6.20;99.90;;;;;;7618590;19;20101;-77
2022/12/21 20:14:49;;;;;;;24.20;14.68;;;6.20;99.90;;;;;;7624957;19;20017;-76
2022/12/21 20:17:27;;;;;;;22.45;13.95;;;6.10;99.90;;;;;;7618622;19;20550;-76
2022/12/21 20:19:59;;;;;;;18.75;11.35;;;6.10;99.90;;;;;;7620474;19;20029;-77
2022/12/21 20:22:31;;;;;;;17.55;10.98;;;6.20;99.90;;;;;;7624113;19;20018;-76
2022/12/21 20:25:04;;;;;;;16.67;11.95;;;6.20;99.90;;;;;;7625810;19;20011;-75
2022/12/21 20:27:39;;;;;;;16.30;10.65;;;6.20;99.90;;;;;;7621693;19;20010;-75
2022/12/21 20:30:25;;;;;;;14.93;10.57;;;6.20;99.90;;;;;;7625644;19;20018;-74
2022/12/21 20:33:06;;;;;;;17.92;11.32;;;6.20;99.90;;;;;;7612577;19;20022;-76
2022/12/21 20:35:38;;;;;;;18.20;12.82;;;6.30;99.90;;;;;;7623452;19;20003;-75
2022/12/21 20:38:29;;;;;;;18.13;12.82;;;6.20;99.90;;;;;;7619546;19;20020;-75
2022/12/21 20:41:05;;;;;;;24.70;13.43;;;6.20;99.90;;;;;;7627989;19;20086;-75
2022/12/21 20:43:42;;;;;;;19.33;12.55;;;6.20;99.90;;;;;;7623940;19;20027;-75
2022/12/21 20:46:24;;;;;;;20.40;12.90;;;6.20;99.90;;;;;;7622398;19;20023;-76
2022/12/21 20:48:57;;;;;;;21.13;13.35;;;6.20;99.90;;;;;;7630582;19;20011;-75
2022/12/21 20:51:29;;;;;;;21.42;13.60;;;6.30;99.90;;;;;;7623877;19;20035;-76
2022/12/21 20:54:02;;;;;;;17.58;11.02;;;6.30;99.90;;;;;;7624192;19;20025;-76
2022/12/21 20:56:34;;;;;;;15.17;9.20;;;6.30;99.90;;;;;;7619354;19;20014;-76
2022/12/21 20:59:07;;;;;;;13.15;8.27;;;6.30;99.90;;;;;;7621941;19;20017;-74
2022/12/21 21:01:59;;;;;;;13.00;8.40;;;6.30;99.90;;;;;;7614808;19;20018;-75
2022/12/21 21:04:34;;;;;;;12.90;8.57;;;6.30;99.90;;;;;;7620443;19;20019;-76
2022/12/21 21:07:21;;;;;;;11.82;6.55;;;6.30;99.90;;;;;;7620897;19;20015;-75
2022/12/21 21:09:54;;;;;;;10.05;6.20;;;6.30;99.90;;;;;;7617999;19;20022;-76
2022/12/21 21:12:26;;;;;;;6.93;5.38;;;6.40;99.90;;;;;;7614718;19;20018;-76
2022/12/21 21:14:58;;;;;;;8.95;5.60;;;6.40;99.90;;;;;;7613451;19;20019;-75
2022/12/21 21:17:37;;;;;;;9.23;6.43;;;6.30;99.90;;;;;;7614566;19;20035;-76
2022/12/21 21:23:00;;;;;;;13.07;6.85;;;6.30;99.90;;;;;;7616211;19;20524;-75
2022/12/21 21:23:19;;;;;;;12.82;7.32;;;6.30;99.90;;;;;;7610194;19;20025;-75
2022/12/21 21:25:52;;;;;;;9.90;6.93;;;6.30;99.90;;;;;;7596211;19;20018;-74
2022/12/21 21:28:26;;;;;;;11.02;6.97;;;6.30;99.90;;;;;;7577906;19;20523;-75
2022/12/21 21:31:00;;;;;;;14.10;7.82;;;6.30;99.90;;;;;;7605772;19;20044;-75
2022/12/21 21:33:32;;;;;;;11.20;7.00;;;6.20;99.90;;;;;;7600558;19;21265;-77
2022/12/21 21:36:08;;;;;;;11.43;6.70;;;6.30;99.90;;;;;;7605314;19;20669;-76
2022/12/21 21:41:41;;;;;;;7.85;5.28;;;6.30;99.90;;;;;;7588310;19;20014;-76
2022/12/21 21:44:19;;;;;;;8.82;5.28;;;6.30;99.90;;;;;;7563365;19;20021;-76
2022/12/21 21:46:52;;;;;;;5.55;4.07;;;6.30;99.90;;;;;;7574506;19;20338;-76
2022/12/21 21:49:27;;;;;;;;;;;6.30;99.90;;;;;;7607834;19;20027;-75
2022/12/21 21:51:59;;;;;;;6.18;3.97;;;6.30;99.90;;;;;;7603571;19;19927;-75
2022/12/21 21:54:31;;;;;;;6.20;4.22;;;6.30;99.90;;;;;;7580077;19;20021;-75
2022/12/21 21:57:04;;;;;;;5.53;4.45;;;6.30;99.90;;;;;;7593755;19;20022;-75
2022/12/21 21:59:37;;;;;;;3.97;3.28;;;6.40;99.90;;;;;;7597679;19;20018;-75
2022/12/21 22:02:35;;;;;;;6.07;3.72;;;6.40;99.90;;;;;;7573781;19;20022;-75
2022/12/21 22:05:27;;;;;;;3.95;3.20;;;6.50;99.90;;;;;;7599972;19;20050;-75
2022/12/21 22:07:59;;;;;;;4.45;3.70;;;6.60;99.90;;;;;;7610637;19;20031;-76
2022/12/21 22:10:32;;;;;;;4.82;3.30;;;6.60;99.90;;;;;;7605676;19;20117;-75
2022/12/21 22:13:08;;;;;;;5.10;3.75;;;6.60;99.90;;;;;;7606353;19;20097;-75
2022/12/21 22:15:43;;;;;;;5.32;3.70;;;6.60;99.90;;;;;;7604460;19;20018;-73
2022/12/21 22:18:21;;;;;;;6.00;3.78;;;6.60;99.90;;;;;;7612750;19;20018;-77
2022/12/21 22:32:45;;;;;;;6.63;4.30;;;6.40;99.90;;;;;;7582228;19;20011;-77
2022/12/21 22:44:00;;;;;;;7.65;5.03;;;6.20;99.90;;;;;;7592950;19;20019;-77
2022/12/21 22:46:32;;;;;;;10.10;5.70;;;6.00;99.90;;;;;;7591462;19;20018;-75
2022/12/21 22:49:05;;;;;;;8.80;5.03;;;6.00;99.90;;;;;;7598623;19;20057;-75
2022/12/21 22:51:39;;;;;;;10.75;5.57;;;5.90;99.90;;;;;;7599493;19;20010;-76
2022/12/21 22:54:12;;;;;;;6.70;4.88;;;5.90;99.90;;;;;;7603076;19;20476;-75
2022/12/21 22:56:44;;;;;;;9.10;5.72;;;5.90;99.90;;;;;;7611063;19;20053;-77
2022/12/21 22:59:19;;;;;;;7.93;5.32;;;5.90;99.90;;;;;;7608435;19;20354;-75
2022/12/21 23:01:51;;;;;;;8.30;5.25;;;5.90;99.90;;;;;;7555376;19;20018;-75
2022/12/21 23:04:23;;;;;;;8.38;5.28;;;6.00;99.90;;;;;;7591737;19;20792;-75
2022/12/21 23:06:55;;;;;;;9.07;5.10;;;5.90;99.90;;;;;;7616658;19;20013;-75
2022/12/21 23:09:27;;;;;;;8.23;4.35;;;6.00;99.90;;;;;;7611655;19;20054;-76
2022/12/21 23:14:51;;;;;;;8.65;5.13;;;5.90;99.90;;;;;;7601907;19;20023;-75
2022/12/21 23:20:28;;;;;;;6.70;4.93;;;5.90;99.90;;;;;;7596090;19;20021;-75
2022/12/21 23:28:34;;;;;;;5.63;4.07;;;5.90;99.90;;;;;;7613992;19;20022;-75
2022/12/21 23:43:37;;;;;;;6.95;4.88;;;5.80;99.90;;;;;;7621985;19;19922;-75
2022/12/21 23:46:09;;;;;;;6.05;4.25;;;5.80;99.90;;;;;;7613456;19;20022;-75
